sensor_id;sensor_type;location;lat;lon;timestamp;pressure;altitude;pressure_sealevel;temperature;humidity
10510;BME280;5303;53.266;10.410;2023-02-20T00:01:14;101831.34;;;6.99;100.00
10510;BME280;5303;53.266;10.410;2023-02-20T00:03:39;101820.28;;;6.91;100.00
10510;BME280;5303;53.266;10.410;2023-02-20T00:06:04;101826.56;;;6.91;100.00
10510;BME280;5303;53.266;10.410;2023-02-20T00:08:30;101815.69;;;7.03;100.00
10510;BME280;5303;53.266;10.410;2023-02-20T00:10:55;101818.91;;;7.08;100.00
10510;BME280;5303;53.266;10.410;2023-02-20T00:13:20;101809.78;;;7.09;100.00
10510;BME280;5303;53.266;10.410;2023-02-20T00:15:46;101806.66;;;7.24;100.00
10510;BME280;5303;53.266;10.410;2023-02-20T00:18:11;101808.25;;;7.27;100.00
10510;BME280;5303;53.266;10.410;2023-02-20T00:20:37;101801.91;;;7.17;100.00
10510;BME280;5303;53.266;10.410;2023-02-20T00:23:02;101802.25;;;7.23;100.00
10510;BME280;5303;53.266;10.410;2023-02-20T00:25:27;101796.34;;;7.18;100.00
10510;BME280;5303;53.266;10.410;2023-02-20T00:27:53;101789.94;;;7.19;100.00
10510;BME280;5303;53.266;10.410;2023-02-20T00:30:22;101790.81;;;7.09;100.00
10510;BME280;5303;53.266;10.410;2023-02-20T00:32:50;101781.91;;;7.29;100.00
10510;BME280;5303;53.266;10.410;2023-02-20T00:35:16;101764.25;;;7.35;100.00
10510;BME280;5303;53.266;10.410;2023-02-20T00:37:43;101768.00;;;7.22;100.00
10510;BME280;5303;53.266;10.410;2023-02-20T00:40:09;101755.31;;;7.23;100.00
10510;BME280;5303;53.266;10.410;2023-02-20T00:42:35;101756.19;;;7.23;100.00
10510;BME280;5303;53.266;10.410;2023-02-20T00:45:00;101747.03;;;7.36;100.00
10510;BME280;5303;53.266;10.410;2023-02-20T00:47:26;101737.22;;;7.23;100.00
10510;BME280;5303;53.266;10.410;2023-02-20T00:49:51;101734.94;;;7.29;100.00
10510;BME280;5303;53.266;10.410;2023-02-20T00:52:16;101719.75;;;7.16;100.00
10510;BME280;5303;53.266;10.410;2023-02-20T00:54:43;101717.47;;;7.33;100.00
10510;BME280;5303;53.266;10.410;2023-02-20T00:57:08;101711.78;;;7.36;100.00
10510;BME280;5303;53.266;10.410;2023-02-20T00:59:33;101694.59;;;7.26;100.00
10510;BME280;5303;53.266;10.410;2023-02-20T01:01:58;101694.38;;;7.17;100.00
10510;BME280;5303;53.266;10.410;2023-02-20T01:04:24;101689.03;;;7.27;100.00
10510;BME280;5303;53.266;10.410;2023-02-20T01:06:49;101691.34;;;7.32;100.00
10510;BME280;5303;53.266;10.410;2023-02-20T01:09:14;101687.06;;;7.29;100.00
10510;BME280;5303;53.266;10.410;2023-02-20T01:11:41;101672.63;;;7.29;100.00
10510;BME280;5303;53.266;10.410;2023-02-20T01:14:07;101668.34;;;7.26;100.00
10510;BME280;5303;53.266;10.410;2023-02-20T01:16:32;101666.81;;;7.54;100.00
10510;BME280;5303;53.266;10.410;2023-02-20T01:18:57;101664.44;;;7.40;100.00
10510;BME280;5303;53.266;10.410;2023-02-20T01:21:23;101665.44;;;7.39;100.00
10510;BME280;5303;53.266;10.410;2023-02-20T01:23:48;101655.31;;;7.41;100.00
10510;BME280;5303;53.266;10.410;2023-02-20T01:26:13;101658.09;;;7.51;100.00
10510;BME280;5303;53.266;10.410;2023-02-20T01:28:42;101668.69;;;7.33;100.00
10510;BME280;5303;53.266;10.410;2023-02-20T01:31:07;101656.47;;;7.38;100.00
10510;BME280;5303;53.266;10.410;2023-02-20T01:33:33;101664.09;;;7.54;100.00
10510;BME280;5303;53.266;10.410;2023-02-20T01:35:58;101666.16;;;7.41;100.00
10510;BME280;5303;53.266;10.410;2023-02-20T01:38:23;101645.34;;;7.62;100.00
10510;BME280;5303;53.266;10.410;2023-02-20T01:40:49;101640.97;;;7.50;100.00
10510;BME280;5303;53.266;10.410;2023-02-20T01:43:15;101625.97;;;7.46;100.00
10510;BME280;5303;53.266;10.410;2023-02-20T01:45:40;101620.66;;;7.44;100.00
10510;BME280;5303;53.266;10.410;2023-02-20T01:48:18;101615.13;;;7.46;100.00
10510;BME280;5303;53.266;10.410;2023-02-20T01:50:44;101621.00;;;7.51;100.00
10510;BME280;5303;53.266;10.410;2023-02-20T01:53:15;101621.94;;;7.40;100.00
10510;BME280;5303;53.266;10.410;2023-02-20T01:55:48;101629.22;;;7.40;100.00
10510;BME280;5303;53.266;10.410;2023-02-20T01:58:19;101620.66;;;7.44;100.00
10510;BME280;5303;53.266;10.410;2023-02-20T02:00:45;101622.06;;;7.60;100.00
10510;BME280;5303;53.266;10.410;2023-02-20T02:03:15;101604.19;;;7.57;100.00
10510;BME280;5303;53.266;10.410;2023-02-20T02:05:45;101605.78;;;7.60;100.00
10510;BME280;5303;53.266;10.410;2023-02-20T02:08:13;101601.38;;;7.59;100.00
10510;BME280;5303;53.266;10.410;2023-02-20T02:10:48;101602.22;;;7.59;100.00
10510;BME280;5303;53.266;10.410;2023-02-20T02:13:15;101595.09;;;7.58;100.00
10510;BME280;5303;53.266;10.410;2023-02-20T02:15:40;101579.44;;;7.72;100.00
10510;BME280;5303;53.266;10.410;2023-02-20T02:18:29;101584.41;;;7.66;100.00
10510;BME280;5303;53.266;10.410;2023-02-20T02:21:23;101568.34;;;7.75;100.00
10510;BME280;5303;53.266;10.410;2023-02-20T02:30:21;101557.88;;;7.70;100.00
10510;BME280;5303;53.266;10.410;2023-02-20T02:33:02;101565.06;;;7.50;100.00
10510;BME280;5303;53.266;10.410;2023-02-20T02:35:48;101540.16;;;7.66;100.00
10510;BME280;5303;53.266;10.410;2023-02-20T02:40:56;101525.22;;;7.72;100.00
10510;BME280;5303;53.266;10.410;2023-02-20T02:46:33;101498.69;;;7.85;100.00
10510;BME280;5303;53.266;10.410;2023-02-20T02:49:23;101506.00;;;7.94;100.00
10510;BME280;5303;53.266;10.410;2023-02-20T02:51:50;101502.84;;;7.89;100.00
10510;BME280;5303;53.266;10.410;2023-02-20T02:54:19;101504.97;;;7.85;100.00
10510;BME280;5303;53.266;10.410;2023-02-20T02:56:48;101501.97;;;7.79;100.00
10510;BME280;5303;53.266;10.410;2023-02-20T02:59:24;101496.00;;;7.85;100.00
10510;BME280;5303;53.266;10.410;2023-02-20T03:02:02;101497.41;;;7.89;100.00
10510;BME280;5303;53.266;10.410;2023-02-20T03:04:30;101494.31;;;7.93;100.00
10510;BME280;5303;53.266;10.410;2023-02-20T03:06:59;101488.88;;;7.93;100.00
10510;BME280;5303;53.266;10.410;2023-02-20T03:09:31;101488.72;;;7.95;100.00
10510;BME280;5303;53.266;10.410;2023-02-20T03:12:00;101497.97;;;7.83;100.00
10510;BME280;5303;53.266;10.410;2023-02-20T03:14:44;101484.72;;;7.99;100.00
10510;BME280;5303;53.266;10.410;2023-02-20T03:17:45;101480.75;;;7.93;100.00
10510;BME280;5303;53.266;10.410;2023-02-20T03:20:15;101479.44;;;7.98;100.00
10510;BME280;5303;53.266;10.410;2023-02-20T03:22:45;101469.59;;;7.87;100.00
10510;BME280;5303;53.266;10.410;2023-02-20T03:25:19;101468.44;;;7.89;100.00
10510;BME280;5303;53.266;10.410;2023-02-20T03:27:56;101470.47;;;7.97;100.00
10510;BME280;5303;53.266;10.410;2023-02-20T03:30:43;101468.78;;;8.06;100.00
10510;BME280;5303;53.266;10.410;2023-02-20T03:33:39;101460.91;;;8.03;100.00
10510;BME280;5303;53.266;10.410;2023-02-20T03:36:31;101456.91;;;8.07;100.00
10510;BME280;5303;53.266;10.410;2023-02-20T03:39:20;101464.31;;;7.95;100.00
10510;BME280;5303;53.266;10.410;2023-02-20T03:42:07;101470.19;;;8.10;100.00
10510;BME280;5303;53.266;10.410;2023-02-20T03:44:53;101458.75;;;7.97;100.00
10510;BME280;5303;53.266;10.410;2023-02-20T03:47:23;101446.47;;;8.12;100.00
10510;BME280;5303;53.266;10.410;2023-02-20T03:49:52;101444.94;;;8.09;100.00
10510;BME280;5303;53.266;10.410;2023-02-20T03:52:19;101439.22;;;8.03;100.00
10510;BME280;5303;53.266;10.410;2023-02-20T03:54:45;101441.91;;;8.03;100.00
10510;BME280;5303;53.266;10.410;2023-02-20T03:57:32;101437.06;;;8.16;100.00
10510;BME280;5303;53.266;10.410;2023-02-20T04:00:02;101436.91;;;8.08;100.00
10510;BME280;5303;53.266;10.410;2023-02-20T04:02:32;101423.63;;;8.14;100.00
10510;BME280;5303;53.266;10.410;2023-02-20T04:05:06;101419.22;;;8.13;100.00
10510;BME280;5303;53.266;10.410;2023-02-20T04:07:40;101404.22;;;8.19;100.00
10510;BME280;5303;53.266;10.410;2023-02-20T04:10:11;101410.06;;;8.05;100.00
10510;BME280;5303;53.266;10.410;2023-02-20T04:12:42;101437.19;;;8.14;100.00
10510;BME280;5303;53.266;10.410;2023-02-20T04:15:08;101443.91;;;8.30;100.00
10510;BME280;5303;53.266;10.410;2023-02-20T04:17:42;101441.47;;;8.36;100.00
10510;BME280;5303;53.266;10.410;2023-02-20T04:20:10;101442.22;;;8.19;100.00
10510;BME280;5303;53.266;10.410;2023-02-20T04:22:40;101432.78;;;8.23;100.00
10510;BME280;5303;53.266;10.410;2023-02-20T04:25:33;101426.34;;;8.24;100.00
10510;BME280;5303;53.266;10.410;2023-02-20T04:28:02;101422.66;;;8.25;100.00
10510;BME280;5303;53.266;10.410;2023-02-20T04:30:28;101428.78;;;8.27;100.00
10510;BME280;5303;53.266;10.410;2023-02-20T04:32:53;101423.91;;;8.31;100.00
10510;BME280;5303;53.266;10.410;2023-02-20T04:35:19;101414.34;;;8.27;100.00
10510;BME280;5303;53.266;10.410;2023-02-20T04:37:45;101409.94;;;8.26;100.00
10510;BME280;5303;53.266;10.410;2023-02-20T04:40:13;101399.38;;;8.13;100.00
10510;BME280;5303;53.266;10.410;2023-02-20T04:42:38;101391.78;;;8.16;100.00
10510;BME280;5303;53.266;10.410;2023-02-20T04:45:03;101399.22;;;8.14;100.00
10510;BME280;5303;53.266;10.410;2023-02-20T04:47:29;101392.19;;;8.12;100.00
10510;BME280;5303;53.266;10.410;2023-02-20T04:49:54;101385.63;;;8.14;100.00
10510;BME280;5303;53.266;10.410;2023-02-20T04:52:19;101395.53;;;8.06;100.00
10510;BME280;5303;53.266;10.410;2023-02-20T04:54:45;101387.94;;;8.09;100.00
10510;BME280;5303;53.266;10.410;2023-02-20T04:57:11;101372.50;;;8.10;100.00
10510;BME280;5303;53.266;10.410;2023-02-20T04:59:36;101367.66;;;8.13;100.00
10510;BME280;5303;53.266;10.410;2023-02-20T05:02:01;101371.78;;;8.17;100.00
10510;BME280;5303;53.266;10.410;2023-02-20T05:04:27;101369.25;;;8.06;100.00
10510;BME280;5303;53.266;10.410;2023-02-20T05:06:53;101357.66;;;8.14;100.00
10510;BME280;5303;53.266;10.410;2023-02-20T05:09:20;101345.94;;;8.13;100.00
10510;BME280;5303;53.266;10.410;2023-02-20T05:11:46;101327.53;;;8.07;100.00
10510;BME280;5303;53.266;10.410;2023-02-20T05:14:11;101326.81;;;8.05;100.00
10510;BME280;5303;53.266;10.410;2023-02-20T05:16:38;101325.38;;;8.11;100.00
10510;BME280;5303;53.266;10.410;2023-02-20T05:19:04;101328.09;;;8.11;100.00
10510;BME280;5303;53.266;10.410;2023-02-20T05:21:30;101317.25;;;8.11;100.00
10510;BME280;5303;53.266;10.410;2023-02-20T05:24:13;101323.41;;;8.03;100.00
10510;BME280;5303;53.266;10.410;2023-02-20T05:26:39;101328.84;;;7.93;100.00
10510;BME280;5303;53.266;10.410;2023-02-20T05:29:05;101336.13;;;7.93;100.00
10510;BME280;5303;53.266;10.410;2023-02-20T05:31:31;101341.09;;;7.98;100.00
10510;BME280;5303;53.266;10.410;2023-02-20T05:33:56;101331.69;;;7.92;100.00
10510;BME280;5303;53.266;10.410;2023-02-20T05:36:21;101327.97;;;8.03;100.00
10510;BME280;5303;53.266;10.410;2023-02-20T05:38:47;101325.66;;;8.08;100.00
10510;BME280;5303;53.266;10.410;2023-02-20T05:41:17;101312.81;;;8.10;100.00
10510;BME280;5303;53.266;10.410;2023-02-20T05:43:42;101305.81;;;8.17;100.00
10510;BME280;5303;53.266;10.410;2023-02-20T05:46:08;101297.38;;;8.20;100.00
10510;BME280;5303;53.266;10.410;2023-02-20T05:48:33;101299.09;;;8.11;100.00
10510;BME280;5303;53.266;10.410;2023-02-20T05:50:58;101296.66;;;8.18;100.00
10510;BME280;5303;53.266;10.410;2023-02-20T05:53:26;101300.63;;;8.33;100.00
10510;BME280;5303;53.266;10.410;2023-02-20T05:55:52;101302.22;;;8.26;100.00
10510;BME280;5303;53.266;10.410;2023-02-20T05:58:18;101287.81;;;8.16;100.00
10510;BME280;5303;53.266;10.410;2023-02-20T06:00:43;101274.06;;;8.27;100.00
10510;BME280;5303;53.266;10.410;2023-02-20T06:03:08;101281.53;;;8.25;100.00
10510;BME280;5303;53.266;10.410;2023-02-20T06:05:36;101275.94;;;8.27;100.00
10510;BME280;5303;53.266;10.410;2023-02-20T06:08:02;101267.66;;;8.28;100.00
10510;BME280;5303;53.266;10.410;2023-02-20T06:10:28;101257.34;;;8.32;100.00
10510;BME280;5303;53.266;10.410;2023-02-20T06:12:53;101276.69;;;8.19;100.00
10510;BME280;5303;53.266;10.410;2023-02-20T06:15:18;101261.25;;;8.20;100.00
10510;BME280;5303;53.266;10.410;2023-02-20T06:17:44;101259.34;;;8.39;100.00
10510;BME280;5303;53.266;10.410;2023-02-20T06:20:09;101260.75;;;8.34;100.00
10510;BME280;5303;53.266;10.410;2023-02-20T06:22:34;101250.34;;;8.39;100.00
10510;BME280;5303;53.266;10.410;2023-02-20T06:25:00;101240.94;;;8.24;100.00
10510;BME280;5303;53.266;10.410;2023-02-20T06:27:25;101243.31;;;8.36;100.00
10510;BME280;5303;53.266;10.410;2023-02-20T06:29:50;101233.91;;;8.40;100.00
10510;BME280;5303;53.266;10.410;2023-02-20T06:32:16;101226.19;;;8.36;100.00
10510;BME280;5303;53.266;10.410;2023-02-20T06:34:43;101222.22;;;8.30;100.00
10510;BME280;5303;53.266;10.410;2023-02-20T06:37:08;101221.50;;;8.38;100.00
10510;BME280;5303;53.266;10.410;2023-02-20T06:39:34;101221.47;;;8.48;100.00
10510;BME280;5303;53.266;10.410;2023-02-20T06:41:59;101222.88;;;8.52;100.00
10510;BME280;5303;53.266;10.410;2023-02-20T06:44:24;101216.19;;;8.46;100.00
10510;BME280;5303;53.266;10.410;2023-02-20T06:46:50;101219.75;;;8.47;100.00
10510;BME280;5303;53.266;10.410;2023-02-20T06:49:15;101225.94;;;8.39;100.00
10510;BME280;5303;53.266;10.410;2023-02-20T06:51:40;101217.81;;;8.57;100.00
10510;BME280;5303;53.266;10.410;2023-02-20T06:54:06;101220.16;;;8.52;100.00
10510;BME280;5303;53.266;10.410;2023-02-20T06:56:34;101214.13;;;8.58;100.00
10510;BME280;5303;53.266;10.410;2023-02-20T06:59:01;101213.00;;;8.78;100.00
10510;BME280;5303;53.266;10.410;2023-02-20T07:01:29;101220.66;;;8.65;100.00
10510;BME280;5303;53.266;10.410;2023-02-20T07:03:57;101230.41;;;8.58;100.00
10510;BME280;5303;53.266;10.410;2023-02-20T07:06:24;101226.09;;;8.65;100.00
10510;BME280;5303;53.266;10.410;2023-02-20T07:08:49;101223.56;;;8.54;100.00
10510;BME280;5303;53.266;10.410;2023-02-20T07:11:20;101244.25;;;8.65;100.00
10510;BME280;5303;53.266;10.410;2023-02-20T07:13:45;101240.13;;;8.60;100.00
10510;BME280;5303;53.266;10.410;2023-02-20T07:16:11;101237.50;;;8.69;100.00
10510;BME280;5303;53.266;10.410;2023-02-20T07:18:36;101233.63;;;8.71;100.00
10510;BME280;5303;53.266;10.410;2023-02-20T07:21:02;101236.13;;;8.82;100.00
10510;BME280;5303;53.266;10.410;2023-02-20T07:23:27;101222.13;;;8.87;100.00
10510;BME280;5303;53.266;10.410;2023-02-20T07:25:52;101227.00;;;8.83;100.00
10510;BME280;5303;53.266;10.410;2023-02-20T07:28:18;101240.16;;;8.78;100.00
10510;BME280;5303;53.266;10.410;2023-02-20T07:30:45;101230.25;;;8.59;100.00
10510;BME280;5303;53.266;10.410;2023-02-20T07:33:12;101229.16;;;8.80;100.00
10510;BME280;5303;53.266;10.410;2023-02-20T07:35:38;101230.50;;;8.94;100.00
10510;BME280;5303;53.266;10.410;2023-02-20T07:38:03;101230.88;;;8.81;100.00
10510;BME280;5303;53.266;10.410;2023-02-20T07:40:28;101234.00;;;9.04;100.00
10510;BME280;5303;53.266;10.410;2023-02-20T07:42:54;101233.22;;;8.94;100.00
10510;BME280;5303;53.266;10.410;2023-02-20T07:45:19;101238.19;;;8.98;100.00
10510;BME280;5303;53.266;10.410;2023-02-20T07:47:45;101226.63;;;8.96;100.00
10510;BME280;5303;53.266;10.410;2023-02-20T07:50:10;101246.25;;;8.90;100.00
10510;BME280;5303;53.266;10.410;2023-02-20T07:52:35;101237.88;;;8.83;100.00
10510;BME280;5303;53.266;10.410;2023-02-20T07:55:01;101248.38;;;8.96;100.00
10510;BME280;5303;53.266;10.410;2023-02-20T07:57:33;101220.50;;;8.94;100.00
10510;BME280;5303;53.266;10.410;2023-02-20T07:59:59;101232.78;;;9.16;100.00
10510;BME280;5303;53.266;10.410;2023-02-20T08:02:24;101226.34;;;8.99;100.00
10510;BME280;5303;53.266;10.410;2023-02-20T08:04:49;101232.06;;;8.96;100.00
10510;BME280;5303;53.266;10.410;2023-02-20T08:07:15;101233.00;;;9.05;100.00
10510;BME280;5303;53.266;10.410;2023-02-20T08:09:40;101232.91;;;8.97;100.00
10510;BME280;5303;53.266;10.410;2023-02-20T08:12:05;101223.25;;;9.12;100.00
10510;BME280;5303;53.266;10.410;2023-02-20T08:14:30;101216.88;;;9.21;100.00
10510;BME280;5303;53.266;10.410;2023-02-20T08:16:56;101211.00;;;8.98;100.00
10510;BME280;5303;53.266;10.410;2023-02-20T08:19:21;101219.53;;;8.85;100.00
10510;BME280;5303;53.266;10.410;2023-02-20T08:21:46;101232.81;;;8.89;100.00
10510;BME280;5303;53.266;10.410;2023-02-20T08:24:11;101208.63;;;9.13;100.00
10510;BME280;5303;53.266;10.410;2023-02-20T08:26:47;101221.28;;;9.04;100.00
10510;BME280;5303;53.266;10.410;2023-02-20T08:29:13;101220.13;;;9.07;100.00
10510;BME280;5303;53.266;10.410;2023-02-20T08:31:39;101214.19;;;8.94;100.00
10510;BME280;5303;53.266;10.410;2023-02-20T08:34:04;101206.50;;;8.89;100.00
10510;BME280;5303;53.266;10.410;2023-02-20T08:36:30;101212.03;;;8.97;100.00
10510;BME280;5303;53.266;10.410;2023-02-20T08:38:55;101203.56;;;9.00;100.00
10510;BME280;5303;53.266;10.410;2023-02-20T08:41:21;101194.72;;;8.80;100.00
10510;BME280;5303;53.266;10.410;2023-02-20T08:43:47;101184.63;;;8.91;100.00
10510;BME280;5303;53.266;10.410;2023-02-20T08:46:12;101181.06;;;8.90;100.00
10510;BME280;5303;53.266;10.410;2023-02-20T08:48:37;101184.56;;;9.00;100.00
10510;BME280;5303;53.266;10.410;2023-02-20T08:51:04;101177.63;;;8.88;100.00
10510;BME280;5303;53.266;10.410;2023-02-20T08:53:30;101184.69;;;8.99;100.00
10510;BME280;5303;53.266;10.410;2023-02-20T08:55:56;101167.06;;;8.85;100.00
10510;BME280;5303;53.266;10.410;2023-02-20T08:58:22;101166.53;;;8.81;100.00
10510;BME280;5303;53.266;10.410;2023-02-20T09:00:49;101169.47;;;8.88;100.00
10510;BME280;5303;53.266;10.410;2023-02-20T09:03:14;101160.00;;;8.92;100.00
10510;BME280;5303;53.266;10.410;2023-02-20T09:05:41;101168.41;;;8.81;100.00
10510;BME280;5303;53.266;10.410;2023-02-20T09:08:07;101165.97;;;8.78;100.00
10510;BME280;5303;53.266;10.410;2023-02-20T09:10:33;101161.09;;;8.81;100.00
10510;BME280;5303;53.266;10.410;2023-02-20T09:12:58;101164.53;;;8.83;100.00
10510;BME280;5303;53.266;10.410;2023-02-20T09:15:23;101155.81;;;8.98;100.00
10510;BME280;5303;53.266;10.410;2023-02-20T09:17:50;101165.50;;;8.82;100.00
10510;BME280;5303;53.266;10.410;2023-02-20T09:20:17;101154.75;;;8.91;100.00
10510;BME280;5303;53.266;10.410;2023-02-20T09:22:45;101154.81;;;8.81;100.00
10510;BME280;5303;53.266;10.410;2023-02-20T09:25:11;101136.88;;;8.88;100.00
10510;BME280;5303;53.266;10.410;2023-02-20T09:27:36;101145.47;;;8.66;100.00
10510;BME280;5303;53.266;10.410;2023-02-20T09:30:02;101139.53;;;8.80;100.00
10510;BME280;5303;53.266;10.410;2023-02-20T09:32:28;101127.97;;;8.78;100.00
10510;BME280;5303;53.266;10.410;2023-02-20T09:34:54;101140.00;;;8.93;100.00
10510;BME280;5303;53.266;10.410;2023-02-20T09:37:19;101138.66;;;8.79;100.00
10510;BME280;5303;53.266;10.410;2023-02-20T09:39:44;101122.59;;;8.68;100.00
10510;BME280;5303;53.266;10.410;2023-02-20T09:44:58;101122.75;;;8.84;100.00
10510;BME280;5303;53.266;10.410;2023-02-20T09:50:33;101125.88;;;8.90;100.00
10510;BME280;5303;53.266;10.410;2023-02-20T09:53:05;101118.41;;;8.92;100.00
10510;BME280;5303;53.266;10.410;2023-02-20T09:55:39;101125.63;;;8.65;100.00
10510;BME280;5303;53.266;10.410;2023-02-20T09:58:06;101118.63;;;8.62;100.00
10510;BME280;5303;53.266;10.410;2023-02-20T10:00:36;101117.06;;;8.60;100.00
10510;BME280;5303;53.266;10.410;2023-02-20T10:03:19;101112.34;;;8.62;100.00
10510;BME280;5303;53.266;10.410;2023-02-20T10:05:46;101108.31;;;8.66;100.00
10510;BME280;5303;53.266;10.410;2023-02-20T10:08:17;101112.13;;;8.73;100.00
10510;BME280;5303;53.266;10.410;2023-02-20T10:10:43;101109.09;;;8.76;100.00
10510;BME280;5303;53.266;10.410;2023-02-20T10:16:19;101098.78;;;8.80;100.00
10510;BME280;5303;53.266;10.410;2023-02-20T10:27:03;101098.47;;;8.83;100.00
10510;BME280;5303;53.266;10.410;2023-02-20T10:29:39;101093.91;;;8.83;100.00
10510;BME280;5303;53.266;10.410;2023-02-20T10:32:57;101089.53;;;8.91;100.00
10510;BME280;5303;53.266;10.410;2023-02-20T10:35:17;101074.00;;;9.01;100.00
10510;BME280;5303;53.266;10.410;2023-02-20T10:37:51;101061.91;;;8.95;100.00
10510;BME280;5303;53.266;10.410;2023-02-20T10:40:32;101065.56;;;8.86;100.00
10510;BME280;5303;53.266;10.410;2023-02-20T10:48:41;101085.28;;;9.06;100.00
10510;BME280;5303;53.266;10.410;2023-02-20T10:51:42;101082.16;;;9.01;100.00
10510;BME280;5303;53.266;10.410;2023-02-20T10:54:16;101071.94;;;9.21;100.00
10510;BME280;5303;53.266;10.410;2023-02-20T10:56:51;101076.13;;;9.33;100.00
10510;BME280;5303;53.266;10.410;2023-02-20T10:59:26;101084.56;;;9.22;100.00
10510;BME280;5303;53.266;10.410;2023-02-20T11:01:57;101094.31;;;9.32;100.00
10510;BME280;5303;53.266;10.410;2023-02-20T11:04:28;101079.38;;;9.37;100.00
10510;BME280;5303;53.266;10.410;2023-02-20T11:06:59;101076.28;;;9.31;100.00
10510;BME280;5303;53.266;10.410;2023-02-20T11:09:25;101053.41;;;9.42;100.00
10510;BME280;5303;53.266;10.410;2023-02-20T11:11:53;101066.28;;;9.32;100.00
10510;BME280;5303;53.266;10.410;2023-02-20T11:16:57;101062.44;;;9.43;100.00
10510;BME280;5303;53.266;10.410;2023-02-20T11:19:35;101071.41;;;9.35;100.00
10510;BME280;5303;53.266;10.410;2023-02-20T11:22:03;101070.34;;;9.54;100.00
10510;BME280;5303;53.266;10.410;2023-02-20T11:24:35;101073.91;;;9.54;100.00
10510;BME280;5303;53.266;10.410;2023-02-20T11:27:14;101071.09;;;9.72;100.00
10510;BME280;5303;53.266;10.410;2023-02-20T11:29:54;101072.75;;;9.65;100.00
10510;BME280;5303;53.266;10.410;2023-02-20T11:37:39;101060.06;;;9.74;100.00
10510;BME280;5303;53.266;10.410;2023-02-20T11:40:31;101059.03;;;9.75;100.00
10510;BME280;5303;53.266;10.410;2023-02-20T11:43:17;101065.50;;;9.74;100.00
10510;BME280;5303;53.266;10.410;2023-02-20T11:45:43;101058.25;;;9.83;100.00
10510;BME280;5303;53.266;10.410;2023-02-20T11:48:11;101068.59;;;9.79;100.00
10510;BME280;5303;53.266;10.410;2023-02-20T11:50:57;101063.38;;;9.86;100.00
10510;BME280;5303;53.266;10.410;2023-02-20T11:53:27;101060.47;;;9.87;100.00
10510;BME280;5303;53.266;10.410;2023-02-20T11:56:15;101075.91;;;9.78;100.00
10510;BME280;5303;53.266;10.410;2023-02-20T11:58:42;101076.97;;;9.86;100.00
10510;BME280;5303;53.266;10.410;2023-02-20T12:01:30;101071.59;;;10.02;100.00
10510;BME280;5303;53.266;10.410;2023-02-20T12:03:58;101082.44;;;9.94;100.00
10510;BME280;5303;53.266;10.410;2023-02-20T12:06:37;101066.50;;;10.07;100.00
10510;BME280;5303;53.266;10.410;2023-02-20T12:09:06;101051.34;;;10.04;100.00
10510;BME280;5303;53.266;10.410;2023-02-20T12:11:35;101066.63;;;9.97;100.00
10510;BME280;5303;53.266;10.410;2023-02-20T12:14:00;101058.72;;;10.12;100.00
10510;BME280;5303;53.266;10.410;2023-02-20T12:19:58;101034.81;;;10.32;100.00
10510;BME280;5303;53.266;10.410;2023-02-20T12:22:34;101036.81;;;10.22;100.00
10510;BME280;5303;53.266;10.410;2023-02-20T12:25:29;101026.13;;;10.37;100.00
10510;BME280;5303;53.266;10.410;2023-02-20T12:28:23;101027.72;;;10.64;100.00
10510;BME280;5303;53.266;10.410;2023-02-20T12:33:47;101020.06;;;10.67;100.00
10510;BME280;5303;53.266;10.410;2023-02-20T12:36:26;101014.47;;;10.85;100.00
10510;BME280;5303;53.266;10.410;2023-02-20T12:41:47;100994.03;;;10.73;100.00
10510;BME280;5303;53.266;10.410;2023-02-20T12:49:56;100996.22;;;10.61;100.00
10510;BME280;5303;53.266;10.410;2023-02-20T12:55:21;100993.84;;;10.99;100.00
10510;BME280;5303;53.266;10.410;2023-02-20T13:00:35;100992.81;;;10.84;100.00
10510;BME280;5303;53.266;10.410;2023-02-20T13:06:06;100985.50;;;10.84;100.00
10510;BME280;5303;53.266;10.410;2023-02-20T13:08:51;100985.16;;;10.95;100.00
10510;BME280;5303;53.266;10.410;2023-02-20T13:11:21;100975.78;;;10.82;100.00
10510;BME280;5303;53.266;10.410;2023-02-20T13:14:16;100970.84;;;10.93;100.00
10510;BME280;5303;53.266;10.410;2023-02-20T13:22:30;100975.75;;;11.06;100.00
10510;BME280;5303;53.266;10.410;2023-02-20T13:30:40;100965.88;;;11.05;100.00
10510;BME280;5303;53.266;10.410;2023-02-20T13:33:24;100984.44;;;11.10;100.00
10510;BME280;5303;53.266;10.410;2023-02-20T13:35:54;100975.56;;;11.24;100.00
10510;BME280;5303;53.266;10.410;2023-02-20T13:38:21;100973.69;;;11.16;100.00
10510;BME280;5303;53.266;10.410;2023-02-20T13:46:14;100973.69;;;11.16;100.00
10510;BME280;5303;53.266;10.410;2023-02-20T13:48:49;100977.81;;;11.12;100.00
10510;BME280;5303;53.266;10.410;2023-02-20T13:53:57;100967.59;;;11.14;100.00
10510;BME280;5303;53.266;10.410;2023-02-20T13:59:09;100975.25;;;11.03;100.00
10510;BME280;5303;53.266;10.410;2023-02-20T14:04:27;100975.72;;;11.23;100.00
10510;BME280;5303;53.266;10.410;2023-02-20T14:06:54;100966.91;;;11.04;100.00
10510;BME280;5303;53.266;10.410;2023-02-20T14:09:27;100972.34;;;11.04;100.00
10510;BME280;5303;53.266;10.410;2023-02-20T14:12:03;100974.59;;;10.92;100.00
10510;BME280;5303;53.266;10.410;2023-02-20T14:14:56;100981.59;;;10.79;100.00
10510;BME280;5303;53.266;10.410;2023-02-20T14:17:22;100972.38;;;10.88;100.00
10510;BME280;5303;53.266;10.410;2023-02-20T14:19:54;100975.44;;;10.85;100.00
10510;BME280;5303;53.266;10.410;2023-02-20T14:24:46;100964.22;;;10.71;100.00
10510;BME280;5303;53.266;10.410;2023-02-20T14:27:30;100962.16;;;10.98;100.00
10510;BME280;5303;53.266;10.410;2023-02-20T14:32:44;100965.75;;;10.82;100.00
10510;BME280;5303;53.266;10.410;2023-02-20T14:40:59;100968.47;;;10.99;100.00
10510;BME280;5303;53.266;10.410;2023-02-20T14:43:34;100971.03;;;10.92;100.00